Time;durP1;ratioP1;P1;durP2;ratioP2;P2;SDS_P1;SDS_P2;PMS_P1;PMS_P2;Temp;Humidity;BMP_temperature;BMP_pressure;BME280_temperature;BME280_humidity;BME280_pressure;Samples;Min_cycle;Max_cycle;Signal;HPM_P1;HPM_P2
2021/05/02 00:02:05;;;;;;;24.27;13.27;;;6.20;99.90;;;;;;5015324;28;20157;-63
2021/05/02 00:04:31;;;;;;;23.52;12.35;;;6.20;99.90;;;;;;5015588;28;20022;-62
2021/05/02 00:06:57;;;;;;;25.58;12.00;;;6.20;99.90;;;;;;5014928;28;20022;-62
2021/05/02 00:09:22;;;;;;;25.38;12.85;;;6.20;99.90;;;;;;5014975;28;20386;-63
2021/05/02 00:11:48;;;;;;;24.67;13.25;;;6.10;99.90;;;;;;5015308;28;20048;-61
2021/05/02 00:14:14;;;;;;;26.10;12.48;;;6.00;99.90;;;;;;5013461;28;20070;-61
2021/05/02 00:16:41;;;;;;;25.50;12.70;;;6.00;99.90;;;;;;5013618;28;20028;-59
2021/05/02 00:19:09;;;;;;;25.90;12.63;;;6.00;99.90;;;;;;5014986;28;20545;-60
2021/05/02 00:21:36;;;;;;;27.27;14.25;;;5.80;99.90;;;;;;5014660;28;20482;-60
2021/05/02 00:24:02;;;;;;;25.08;13.90;;;5.80;99.90;;;;;;5046541;28;20033;-61
2021/05/02 00:26:29;;;;;;;27.50;13.05;;;5.80;99.90;;;;;;5014679;28;20037;-58
2021/05/02 00:28:56;;;;;;;25.92;14.27;;;5.80;99.90;;;;;;5014388;28;20022;-61
2021/05/02 00:31:22;;;;;;;26.75;13.88;;;5.70;99.90;;;;;;5014637;28;20482;-63
2021/05/02 00:33:48;;;;;;;26.85;13.30;;;5.70;99.90;;;;;;5014401;28;20029;-61
2021/05/02 00:36:14;;;;;;;29.75;14.32;;;5.70;99.90;;;;;;5014258;28;20030;-61
2021/05/02 00:38:41;;;;;;;24.52;12.38;;;5.60;99.90;;;;;;5014084;28;20022;-62
2021/05/02 00:41:11;;;;;;;26.15;14.40;;;5.60;99.90;;;;;;5014139;28;20022;-61
2021/05/02 00:43:42;;;;;;;29.60;15.32;;;5.60;99.90;;;;;;5014476;28;20362;-61
2021/05/02 00:46:08;;;;;;;29.23;15.48;;;5.60;99.90;;;;;;5014221;28;20508;-59
2021/05/02 00:48:44;;;;;;;26.70;14.35;;;5.50;99.90;;;;;;5085785;22;20126;-56
2021/05/02 00:51:14;;;;;;;30.38;14.88;;;5.60;99.90;;;;;;5093296;28;20020;-51
2021/05/02 00:54:00;;;;;;;26.10;13.93;;;5.50;99.90;;;;;;5091482;28;20192;-54
2021/05/02 00:56:29;;;;;;;31.40;16.38;;;5.50;99.90;;;;;;5092450;28;20024;-58
2021/05/02 00:59:06;;;;;;;30.08;14.88;;;5.50;99.90;;;;;;5075029;28;20115;-57
2021/05/02 01:01:44;;;;;;;30.55;15.75;;;5.50;99.90;;;;;;5093268;28;20077;-52
2021/05/02 01:04:10;;;;;;;;;;;5.40;99.90;;;;;;5093778;28;20020;-58
2021/05/02 01:06:39;;;;;;;31.70;15.48;;;5.40;99.90;;;;;;5093488;28;19904;-52
2021/05/02 01:09:06;;;;;;;28.33;14.50;;;5.40;99.90;;;;;;5092984;28;20430;-54
2021/05/02 01:11:36;;;;;;;31.00;16.30;;;5.40;99.90;;;;;;5093274;28;20112;-58
2021/05/02 01:14:03;;;;;;;30.08;15.00;;;5.40;99.90;;;;;;5093168;28;20180;-56
2021/05/02 01:16:34;;;;;;;28.55;15.18;;;5.30;99.90;;;;;;5093123;28;20028;-55
2021/05/02 01:19:07;;;;;;;29.02;15.30;;;5.30;99.90;;;;;;5092753;28;20384;-60
2021/05/02 01:21:38;;;;;;;28.45;15.50;;;5.30;99.90;;;;;;5093120;28;20089;-56
2021/05/02 01:24:07;;;;;;;28.10;14.77;;;5.30;99.90;;;;;;5093213;28;20034;-55
2021/05/02 01:26:35;;;;;;;29.23;15.45;;;5.30;99.90;;;;;;5093580;28;20032;-56
2021/05/02 01:29:01;;;;;;;29.27;15.93;;;5.30;99.90;;;;;;5091431;28;20073;-60
2021/05/02 01:31:27;;;;;;;29.45;16.23;;;5.20;99.90;;;;;;5092902;28;20016;-57
2021/05/02 01:33:53;;;;;;;27.45;15.07;;;5.10;99.90;;;;;;5091643;28;20107;-61
2021/05/02 01:36:19;;;;;;;30.13;14.77;;;5.20;99.90;;;;;;5093126;28;20537;-57
2021/05/02 01:38:46;;;;;;;28.13;15.20;;;5.10;99.90;;;;;;5091407;28;20021;-57
2021/05/02 01:41:12;;;;;;;29.63;16.05;;;5.10;99.90;;;;;;5092992;28;20023;-59
2021/05/02 01:43:37;;;;;;;28.48;15.15;;;5.10;99.90;;;;;;5091583;28;20036;-56
2021/05/02 01:46:05;;;;;;;30.33;15.10;;;5.10;99.90;;;;;;5091495;28;20032;-56
2021/05/02 01:48:33;;;;;;;28.25;14.35;;;5.10;99.90;;;;;;5091363;28;20165;-58
2021/05/02 01:51:04;;;;;;;29.85;16.00;;;5.10;99.90;;;;;;5092437;28;20078;-59
2021/05/02 01:53:30;;;;;;;27.75;15.38;;;5.10;99.90;;;;;;5092539;28;20028;-56
2021/05/02 01:55:59;;;;;;;27.05;14.73;;;5.10;99.90;;;;;;5091385;28;20068;-54
2021/05/02 01:58:25;;;;;;;26.15;13.95;;;5.00;99.90;;;;;;5092550;28;20028;-57
2021/05/02 02:00:54;;;;;;;26.48;13.50;;;5.00;99.90;;;;;;5092209;28;20399;-59
2021/05/02 02:03:19;;;;;;;;;;;5.00;99.90;;;;;;5092799;28;20027;-53
2021/05/02 02:05:46;;;;;;;27.95;14.40;;;5.00;99.90;;;;;;5092341;28;19911;-60
2021/05/02 02:08:12;;;;;;;27.50;13.55;;;4.90;99.90;;;;;;5092231;28;20032;-55
2021/05/02 02:10:39;;;;;;;29.42;14.18;;;4.90;99.90;;;;;;5092148;28;20091;-56
2021/05/02 02:13:07;;;;;;;27.27;14.00;;;4.80;99.90;;;;;;5092416;28;20044;-54
2021/05/02 02:15:32;;;;;;;26.52;13.75;;;4.70;99.90;;;;;;5090983;28;20411;-54
2021/05/02 02:17:59;;;;;;;26.48;13.35;;;4.80;99.90;;;;;;5092351;28;20024;-54
2021/05/02 02:20:26;;;;;;;29.35;15.13;;;4.70;99.90;;;;;;5090869;28;20035;-57
2021/05/02 02:22:56;;;;;;;27.17;14.52;;;4.60;99.90;;;;;;5092224;28;20024;-58
2021/05/02 02:25:27;;;;;;;29.27;14.73;;;4.60;99.90;;;;;;5092248;28;20115;-55
2021/05/02 02:27:55;;;;;;;27.52;14.13;;;4.60;99.90;;;;;;5090993;28;20024;-58
2021/05/02 02:30:21;;;;;;;28.58;13.00;;;4.60;99.90;;;;;;5091940;28;20027;-57
2021/05/02 02:32:48;;;;;;;27.20;13.75;;;4.60;99.90;;;;;;5092186;28;20024;-57
2021/05/02 02:35:18;;;;;;;27.48;14.07;;;4.60;99.90;;;;;;5092383;28;20020;-57
2021/05/02 02:37:45;;;;;;;25.75;13.20;;;4.50;99.90;;;;;;5092097;28;20024;-55
2021/05/02 02:40:14;;;;;;;27.40;14.23;;;4.50;99.90;;;;;;5091695;28;20024;-51
2021/05/02 02:42:44;;;;;;;26.75;13.98;;;4.40;99.90;;;;;;5091032;28;20123;-55
2021/05/02 02:45:11;;;;;;;28.10;15.07;;;4.40;99.90;;;;;;5092026;28;20048;-53
2021/05/02 02:47:38;;;;;;;27.52;13.00;;;4.40;99.90;;;;;;5090555;28;20399;-59
2021/05/02 02:50:08;;;;;;;26.75;13.30;;;4.40;99.90;;;;;;5091737;28;20055;-56
2021/05/02 02:52:41;;;;;;;26.25;12.05;;;4.40;99.90;;;;;;5090640;28;20074;-59
2021/05/02 02:55:10;;;;;;;29.17;12.73;;;4.50;99.90;;;;;;5090933;28;20052;-53
2021/05/02 02:57:51;;;;;;;26.98;13.27;;;4.40;99.90;;;;;;5091735;28;20046;-59
2021/05/02 03:00:25;;;;;;;27.65;13.55;;;4.50;99.90;;;;;;5091566;28;20034;-54
2021/05/02 03:02:56;;;;;;;26.08;13.55;;;4.50;99.90;;;;;;5090549;28;20052;-58
2021/05/02 03:05:24;;;;;;;29.58;12.63;;;4.60;99.90;;;;;;5090734;28;20107;-59
2021/05/02 03:07:52;;;;;;;27.33;11.73;;;4.60;99.90;;;;;;5091656;28;20391;-58
2021/05/02 03:10:18;;;;;;;27.55;13.57;;;4.60;99.90;;;;;;5091622;28;20028;-57
2021/05/02 03:12:46;;;;;;;26.77;11.60;;;4.60;99.90;;;;;;5091489;28;20387;-59
2021/05/02 03:15:12;;;;;;;27.05;12.85;;;4.70;99.90;;;;;;5090570;28;20107;-58
2021/05/02 03:17:41;;;;;;;23.33;10.60;;;4.70;99.90;;;;;;5093691;28;20434;-59
2021/05/02 03:20:15;;;;;;;23.08;11.10;;;4.70;99.90;;;;;;5095003;28;20391;-57
2021/05/02 03:22:57;;;;;;;24.50;9.85;;;4.70;99.90;;;;;;5094980;28;20078;-54
2021/05/02 03:25:27;;;;;;;23.73;9.80;;;4.70;99.90;;;;;;5095368;28;20081;-53
2021/05/02 03:28:25;;;;;;;24.55;10.77;;;4.60;99.90;;;;;;5095287;28;20020;-56
2021/05/02 03:30:51;;;;;;;24.10;10.43;;;4.70;99.90;;;;;;5095010;28;20144;-56
2021/05/02 03:33:19;;;;;;;24.52;11.15;;;4.60;99.90;;;;;;5095092;28;20036;-55
2021/05/02 03:35:47;;;;;;;24.35;11.10;;;4.60;99.90;;;;;;5095142;28;20028;-55
2021/05/02 03:38:28;;;;;;;25.25;10.38;;;4.70;99.90;;;;;;5095113;28;20032;-58
2021/05/02 03:40:55;;;;;;;25.85;12.48;;;4.70;99.90;;;;;;5094849;28;20043;-57
2021/05/02 03:43:21;;;;;;;26.85;11.73;;;4.80;99.90;;;;;;5094865;28;20046;-55
2021/05/02 03:45:46;;;;;;;24.88;11.55;;;4.90;99.90;;;;;;5095077;28;20024;-55
2021/05/02 03:48:12;;;;;;;23.77;11.82;;;4.90;99.90;;;;;;5094824;28;20035;-55
2021/05/02 03:50:37;;;;;;;26.55;12.10;;;4.90;99.90;;;;;;5094443;28;20472;-58
2021/05/02 03:53:04;;;;;;;25.38;12.88;;;4.90;99.90;;;;;;5093525;28;20020;-56
2021/05/02 03:55:46;;;;;;;27.75;12.45;;;4.90;99.90;;;;;;5095019;28;20027;-58
2021/05/02 03:58:13;;;;;;;26.77;12.20;;;4.90;99.90;;;;;;5093287;28;20047;-56
2021/05/02 04:00:40;;;;;;;25.17;12.35;;;4.90;99.90;;;;;;5094687;28;20024;-59
2021/05/02 04:03:06;;;;;;;29.38;13.38;;;5.00;99.90;;;;;;5094947;28;20411;-54
2021/05/02 04:05:32;;;;;;;26.08;13.77;;;4.90;99.90;;;;;;5094723;28;20020;-53
2021/05/02 04:07:58;;;;;;;27.35;12.73;;;5.00;99.90;;;;;;5094581;28;20207;-58
2021/05/02 04:10:24;;;;;;;25.33;12.23;;;5.00;99.90;;;;;;5093680;28;20570;-58
2021/05/02 04:12:50;;;;;;;30.58;13.18;;;5.00;99.90;;;;;;5094668;28;20020;-54
2021/05/02 04:15:16;;;;;;;26.90;13.25;;;5.10;99.90;;;;;;5094723;28;20112;-54
2021/05/02 04:17:42;;;;;;;28.88;14.88;;;5.10;99.90;;;;;;5094570;28;20071;-54
2021/05/02 04:20:08;;;;;;;26.17;13.13;;;5.10;99.90;;;;;;5094119;28;20108;-51
2021/05/02 04:22:34;;;;;;;27.67;14.27;;;5.10;99.90;;;;;;5092949;28;20111;-54
2021/05/02 04:24:59;;;;;;;24.98;12.93;;;5.20;99.90;;;;;;5094620;28;20089;-51
2021/05/02 04:27:25;;;;;;;28.17;14.60;;;5.20;99.90;;;;;;5093562;28;20455;-56
2021/05/02 04:29:51;;;;;;;25.75;12.18;;;5.30;99.90;;;;;;5093437;28;20460;-54
2021/05/02 04:32:16;;;;;;;26.33;13.60;;;5.30;99.90;;;;;;5092665;28;20051;-54
2021/05/02 04:34:42;;;;;;;24.95;12.18;;;5.30;99.90;;;;;;5093948;28;20024;-56
2021/05/02 04:37:08;;;;;;;24.88;12.65;;;5.30;99.90;;;;;;5093874;28;20020;-56
2021/05/02 04:39:33;;;;;;;28.23;13.27;;;5.30;99.90;;;;;;5093621;28;20032;-58
2021/05/02 04:41:59;;;;;;;26.60;13.23;;;5.20;99.90;;;;;;5092588;28;20110;-57
2021/05/02 04:44:26;;;;;;;26.52;13.85;;;5.30;99.90;;;;;;5093626;28;20067;-59
2021/05/02 04:46:52;;;;;;;27.23;12.82;;;5.20;99.90;;;;;;5093572;28;20127;-59
2021/05/02 04:49:18;;;;;;;24.88;12.05;;;5.20;99.90;;;;;;5093526;28;20088;-57
2021/05/02 04:51:44;;;;;;;24.08;11.88;;;5.20;99.90;;;;;;5075752;28;20122;-58
2021/05/02 04:54:10;;;;;;;25.20;11.88;;;5.30;99.90;;;;;;5092333;28;20024;-58
2021/05/02 04:56:37;;;;;;;26.33;11.20;;;5.40;99.90;;;;;;5093605;28;20024;-61
2021/05/02 04:59:04;;;;;;;23.25;10.90;;;5.40;99.90;;;;;;5093150;28;20043;-58
2021/05/02 05:01:29;;;;;;;22.05;11.00;;;5.50;99.90;;;;;;5093480;28;20028;-57
2021/05/02 05:03:56;;;;;;;23.42;10.80;;;5.60;99.90;;;;;;5093418;28;20030;-56
2021/05/02 05:06:22;;;;;;;32.53;13.23;;;5.70;99.90;;;;;;5093371;28;20032;-54
2021/05/02 05:08:48;;;;;;;24.60;11.20;;;5.70;99.90;;;;;;5092586;28;20023;-54
2021/05/02 05:11:13;;;;;;;24.33;10.45;;;5.90;99.90;;;;;;5093083;28;20016;-57
2021/05/02 05:13:39;;;;;;;21.98;9.93;;;5.90;99.90;;;;;;5092955;28;20122;-57
2021/05/02 05:16:04;;;;;;;21.02;11.05;;;5.90;99.90;;;;;;5092158;28;20024;-56
2021/05/02 05:18:30;;;;;;;21.90;10.40;;;5.90;99.90;;;;;;5093177;28;20020;-53
2021/05/02 05:20:57;;;;;;;20.55;9.95;;;6.00;99.90;;;;;;5091713;28;20026;-59
2021/05/02 05:23:23;;;;;;;21.77;10.13;;;6.00;99.90;;;;;;5091814;28;20035;-54
2021/05/02 05:25:49;;;;;;;21.38;10.27;;;6.00;99.90;;;;;;5092867;28;20034;-52
2021/05/02 05:28:14;;;;;;;22.40;10.13;;;6.00;99.90;;;;;;5091506;28;20028;-57
2021/05/02 05:30:40;;;;;;;21.20;9.77;;;6.00;99.90;;;;;;5092675;28;20480;-55
2021/05/02 05:33:08;;;;;;;22.55;10.32;;;5.90;99.90;;;;;;5092968;28;20028;-53
2021/05/02 05:35:35;;;;;;;24.23;10.10;;;5.90;99.90;;;;;;5092768;28;20024;-56
2021/05/02 05:38:01;;;;;;;22.27;9.00;;;5.90;99.90;;;;;;5091570;28;20016;-52
2021/05/02 05:40:28;;;;;;;20.73;8.88;;;5.90;99.90;;;;;;5091929;28;20070;-56
2021/05/02 05:42:54;;;;;;;26.75;11.07;;;5.80;99.90;;;;;;5092810;28;20032;-57
2021/05/02 05:45:20;;;;;;;22.88;10.57;;;5.80;99.90;;;;;;5092864;28;20032;-55
2021/05/02 05:47:47;;;;;;;23.00;10.45;;;5.80;99.90;;;;;;5092366;28;20031;-58
2021/05/02 05:50:14;;;;;;;19.85;9.40;;;5.90;99.90;;;;;;5092378;28;20028;-57
2021/05/02 05:52:44;;;;;;;21.25;9.93;;;5.90;99.90;;;;;;5092767;28;20028;-58
2021/05/02 05:55:11;;;;;;;20.85;9.32;;;5.90;99.90;;;;;;5091173;28;20468;-52
2021/05/02 05:57:38;;;;;;;23.45;10.13;;;6.00;99.90;;;;;;5092404;28;20391;-55
2021/05/02 06:00:07;;;;;;;24.20;9.73;;;5.90;99.90;;;;;;5092090;28;20031;-55
2021/05/02 06:02:32;;;;;;;23.27;9.77;;;5.90;99.90;;;;;;5091124;28;20032;-59
2021/05/02 06:04:58;;;;;;;23.85;9.13;;;6.00;99.90;;;;;;5092343;28;20024;-54
2021/05/02 06:07:24;;;;;;;19.48;8.88;;;6.00;99.90;;;;;;5091304;28;20626;-56
2021/05/02 06:09:49;;;;;;;19.95;8.18;;;6.00;99.90;;;;;;5091924;28;20529;-55
2021/05/02 06:12:15;;;;;;;21.98;8.82;;;6.00;99.90;;;;;;5092348;28;20020;-54
2021/05/02 06:14:41;;;;;;;20.20;8.60;;;6.00;99.90;;;;;;5092206;28;20428;-60
2021/05/02 06:17:07;;;;;;;19.92;8.48;;;6.10;99.90;;;;;;5092067;28;20511;-55
2021/05/02 06:19:33;;;;;;;22.17;7.88;;;6.20;99.90;;;;;;5091875;28;20051;-59
2021/05/02 06:21:59;;;;;;;18.42;7.95;;;6.20;99.90;;;;;;5090873;28;20055;-54
2021/05/02 06:24:25;;;;;;;18.85;7.40;;;;;;;;;;5091969;28;20455;-56
2021/05/02 06:26:51;;;;;;;19.75;7.68;;;;;;;;;;5092077;28;20028;-54
2021/05/02 06:29:17;;;;;;;19.38;7.70;;;;;;;;;;5090486;28;20484;-56
2021/05/02 06:31:43;;;;;;;18.23;6.50;;;;;;;;;;5082579;28;20021;-56
2021/05/02 06:34:09;;;;;;;20.25;5.68;;;;;;;;;;5074072;28;20139;-58
2021/05/02 06:36:36;;;;;;;16.48;5.88;;;;;;;;;;5080875;28;20035;-53
2021/05/02 06:39:02;;;;;;;19.30;6.43;;;6.20;99.90;;;;;;5091602;28;20088;-60
2021/05/02 06:41:28;;;;;;;16.15;6.15;;;6.80;99.90;;;;;;5077033;28;20366;-58
2021/05/02 06:43:54;;;;;;;18.25;5.90;;;7.00;99.90;;;;;;5071501;28;20040;-61
2021/05/02 06:46:30;;;;;;;18.92;5.40;;;;;;;;;;5071628;28;20031;-56
2021/05/02 06:48:57;;;;;;;15.13;5.35;;;;;;;;;;5079651;22;20110;-57
2021/05/02 06:51:23;;;;;;;16.05;4.47;;;;;;;;;;5053280;28;20457;-62
2021/05/02 06:53:49;;;;;;;19.20;5.05;;;;;;;;;;5054589;28;20033;-61
2021/05/02 06:56:15;;;;;;;15.88;4.80;;;;;;;;;;5056033;28;20381;-59
2021/05/02 06:58:41;;;;;;;13.30;4.50;;;;;;;;;;5055579;28;20017;-58
2021/05/02 07:01:08;;;;;;;16.00;4.78;;;;;;;;;;5055820;28;20028;-59
2021/05/02 07:03:34;;;;;;;15.77;4.85;;;;;;;;;;5055775;28;20075;-56
2021/05/02 07:06:01;;;;;;;12.95;4.45;;;;;;;;;;5054368;28;20017;-62
2021/05/02 07:08:27;;;;;;;16.42;4.25;;;;;;;;;;5055559;28;20035;-59
2021/05/02 07:10:53;;;;;;;13.38;4.40;;;;;;;;;;5055691;28;20025;-60
2021/05/02 07:13:19;;;;;;;12.80;4.38;;;;;;;;;;5055495;28;20029;-58
2021/05/02 07:15:45;;;;;;;15.05;4.63;;;;;;;;;;5055448;28;20025;-60
2021/05/02 07:18:11;;;;;;;11.90;4.22;;;;;;;;;;5055464;28;20029;-58
2021/05/02 07:20:37;;;;;;;15.07;4.45;;;;;;;;;;5055212;28;20033;-60
2021/05/02 07:23:03;;;;;;;13.90;4.50;;;;;;;;;;5054261;28;20070;-60
2021/05/02 07:25:29;;;;;;;14.70;4.43;;;;;;;;;;5055616;28;20108;-60
2021/05/02 07:27:55;;;;;;;12.73;4.40;;;;;;;;;;5054167;28;20048;-59
2021/05/02 07:30:22;;;;;;;15.18;4.40;;;;;;;;;;5053784;28;20477;-62
2021/05/02 07:32:48;;;;;;;14.23;4.72;;;;;;;;;;5055269;28;20028;-60
2021/05/02 07:35:14;;;;;;;15.30;4.57;;;;;;;;;;5053899;28;20389;-61
2021/05/02 07:37:40;;;;;;;12.77;4.45;;;;;;;;;;5054025;28;20047;-59
2021/05/02 07:40:07;;;;;;;11.32;5.30;;;;;;;;;;5054990;28;20021;-61
2021/05/02 07:42:33;;;;;;;16.83;5.22;;;;;;;;;;5055501;28;20059;-58
2021/05/02 07:44:59;;;;;;;12.18;4.43;;;;;;;;;;5054045;28;20076;-61
2021/05/02 07:47:26;;;;;;;12.05;5.25;;;;;;;;;;5054570;28;20017;-61
2021/05/02 07:49:52;;;;;;;14.23;4.60;;;;;;;;;;5054582;28;20025;-59
2021/05/02 07:52:18;;;;;;;14.02;4.82;;;;;;;;;;5054872;28;20095;-58
2021/05/02 07:54:44;;;;;;;13.25;4.60;;;;;;;;;;5054544;28;20032;-57
2021/05/02 07:57:10;;;;;;;14.80;4.72;;;;;;;;;;5054653;28;20032;-59
2021/05/02 07:59:39;;;;;;;15.32;5.00;;;;;;;;;;5054501;28;20021;-56
2021/05/02 08:02:09;;;;;;;12.05;4.47;;;;;;;;;;5053070;28;20029;-56
2021/05/02 08:04:38;;;;;;;12.43;4.88;;;;;;;;;;5054648;28;20056;-57
2021/05/02 08:07:04;;;;;;;11.93;5.13;;;;;;;;;;5053341;28;20017;-52
2021/05/02 08:09:30;;;;;;;11.80;5.05;;;;;;;;;;5054461;28;20078;-57
2021/05/02 08:11:56;;;;;;;13.48;5.20;;;;;;;;;;5054701;28;20504;-54
2021/05/02 08:14:22;;;;;;;12.43;5.20;;;;;;;;;;5053793;28;20032;-54
2021/05/02 08:16:48;;;;;;;14.00;4.90;;;;;;;;;;5058712;28;20013;-57
2021/05/02 08:19:14;;;;;;;11.00;4.93;;;;;;;;;;5062288;28;20025;-57
2021/05/02 08:21:40;;;;;;;11.60;4.70;;;;;;;;;;5062401;28;20472;-60
2021/05/02 08:24:08;;;;;;;13.63;5.53;;;;;;;;;;5059613;28;20119;-55
2021/05/02 08:26:33;;;;;;;15.30;5.40;;;;;;;;;;5054781;28;20496;-57
2021/05/02 08:28:59;;;;;;;14.18;5.13;;;;;;;;;;5054219;28;20037;-57
2021/05/02 08:31:27;;;;;;;12.43;5.10;;;;;;;;;;5053400;28;20068;-57
2021/05/02 08:33:53;;;;;;;13.33;5.23;;;;;;;;;;5054644;28;20025;-58
2021/05/02 08:36:19;;;;;;;14.27;5.63;;;;;;;;;;5054434;28;20263;-57
2021/05/02 08:38:45;;;;;;;11.60;5.05;;;;;;;;;;5053795;28;20025;-55
2021/05/02 08:41:11;;;;;;;14.10;5.82;;;;;;;;;;5054495;28;20032;-56
2021/05/02 08:43:37;;;;;;;13.75;5.60;;;;;;;;;;5053384;28;20025;-57
2021/05/02 08:46:03;;;;;;;17.08;5.25;;;;;;;;;;5054532;28;20021;-56
2021/05/02 08:48:30;;;;;;;12.70;5.57;;;;;;;;;;5053484;28;20041;-52
2021/05/02 08:50:57;;;;;;;13.27;5.80;;;;;;;;;;5051914;28;20025;-53
2021/05/02 08:53:24;;;;;;;15.90;6.00;;;;;;;;;;5053216;28;20410;-55
2021/05/02 08:55:51;;;;;;;16.17;5.87;;;;;;;;;;5053110;28;20017;-54
2021/05/02 08:58:18;;;;;;;14.00;5.90;;;;;;;;;;5053285;28;20270;-56
2021/05/02 09:00:44;;;;;;;13.05;5.38;;;;;;;;;;5042466;28;20052;-55
2021/05/02 09:03:12;;;;;;;11.63;5.95;;;;;;;;;;5053099;28;20417;-54
2021/05/02 09:05:44;;;;;;;14.50;6.90;;;;;;;;;;5051888;28;20029;-53
2021/05/02 09:08:11;;;;;;;14.15;5.60;;;;;;;;;;5052991;28;20048;-55
2021/05/02 09:10:37;;;;;;;12.90;5.80;;;;;;;;;;5051375;28;20093;-53
2021/05/02 09:13:05;;;;;;;15.85;6.10;;;;;;;;;;5051891;28;20036;-56
2021/05/02 09:15:31;;;;;;;;;;;;;;;;;;5052576;28;20117;-54
2021/05/02 09:20:48;;;;;;;17.67;6.75;;;;;;;;;;5052487;28;20025;-54
2021/05/02 09:23:15;;;;;;;13.40;6.18;;;7.00;99.90;;;;;;5051581;28;20037;-55
2021/05/02 09:25:55;;;;;;;15.45;6.10;;;10.60;99.90;;;;;;5052769;28;20481;-56
2021/05/02 09:28:40;;;;;;;15.70;6.40;;;;;;;;;;5051840;28;20457;-58
2021/05/02 09:31:07;;;;;;;16.65;5.88;;;;;;;;;;5052741;28;20538;-55
2021/05/02 09:33:33;;;;;;;13.60;5.70;;;;;;;;;;5051083;28;20033;-59
2021/05/02 09:35:59;;;;;;;14.32;5.82;;;;;;;;;;5052044;28;20017;-54
2021/05/02 09:38:27;;;;;;;19.55;6.20;;;10.60;99.90;;;;;;5052361;28;20014;-55
2021/05/02 09:40:57;;;;;;;15.93;6.38;;;11.00;99.90;;;;;;5052168;28;20025;-54
2021/05/02 09:43:42;;;;;;;15.93;6.43;;;10.70;99.90;;;;;;5051470;28;20579;-56
2021/05/02 09:46:25;;;;;;;16.98;5.95;;;10.70;99.90;;;;;;5051611;28;20056;-58
2021/05/02 09:48:52;;;;;;;14.18;5.97;;;;;;;;;;5032260;28;20033;-61
2021/05/02 09:51:20;;;;;;;14.15;5.68;;;;;;;;;;5032965;28;20030;-58
2021/05/02 09:54:04;;;;;;;12.63;5.47;;;;;;;;;;5031435;28;20473;-58
2021/05/02 09:56:40;;;;;;;13.80;5.55;;;;;;;;;;5031233;28;20032;-62
2021/05/02 09:59:19;;;;;;;15.07;5.70;;;;;;;;;;5032110;28;20036;-60
2021/05/02 10:01:45;;;;;;;;;;;;;;;;;;5033063;28;20021;-59
2021/05/02 10:04:11;;;;;;;12.57;5.60;;;;;;;;;;5032182;28;19959;-59
2021/05/02 10:06:36;;;;;;;15.80;5.70;;;10.60;99.90;;;;;;5031744;28;20108;-62
2021/05/02 10:09:08;;;;;;;13.13;5.50;;;10.90;99.90;;;;;;5032115;28;20433;-59
2021/05/02 10:11:34;;;;;;;15.70;6.10;;;11.10;99.90;;;;;;5031311;28;20052;-61
2021/05/02 10:14:03;;;;;;;13.50;5.55;;;10.80;99.90;;;;;;5032397;28;20026;-61
2021/05/02 10:16:29;;;;;;;;;;;10.70;99.90;;;;;;5031765;28;20144;-58
2021/05/02 10:18:57;;;;;;;13.00;5.20;;;10.40;99.90;;;;;;5032194;28;19905;-59
2021/05/02 10:21:23;;;;;;;12.88;5.28;;;10.30;99.90;;;;;;5032690;28;20025;-60
2021/05/02 10:23:49;;;;;;;13.90;5.50;;;10.30;99.90;;;;;;5032357;28;20026;-60
2021/05/02 10:26:16;;;;;;;16.05;5.78;;;10.40;99.90;;;;;;5034357;28;20079;-59
2021/05/02 10:28:45;;;;;;;14.18;6.13;;;10.50;99.90;;;;;;5034935;28;20030;-61
2021/05/02 10:31:11;;;;;;;13.75;6.00;;;10.90;99.90;;;;;;5036442;28;20489;-60
2021/05/02 10:33:42;;;;;;;16.70;7.05;;;11.10;99.70;;;;;;5036725;28;20432;-57
2021/05/02 10:36:17;;;;;;;14.32;6.82;;;11.50;98.50;;;;;;5056127;28;20071;-60
2021/05/02 10:39:00;;;;;;;16.27;7.30;;;11.70;96.30;;;;;;5055860;28;20013;-60
2021/05/02 10:41:44;;;;;;;13.65;6.75;;;11.50;94.30;;;;;;5056147;28;20100;-54
2021/05/02 10:44:13;;;;;;;15.18;7.10;;;11.30;94.90;;;;;;5050968;28;20040;-60
2021/05/02 10:46:42;;;;;;;;;;;11.10;95.50;;;;;;5056178;28;20017;-58
2021/05/02 10:49:08;;;;;;;;;;;11.20;95.90;;;;;;5055268;28;20293;-60
2021/05/02 10:51:34;;;;;;;15.25;7.40;;;;;;;;;;5054102;28;19919;-57
2021/05/02 10:54:01;;;;;;;13.43;7.28;;;;;;;;;;5052900;28;20021;-55
2021/05/02 10:57:05;;;;;;;14.25;7.57;;;;;;;;;;5055441;28;20032;-61
2021/05/02 10:59:50;;;;;;;14.70;7.40;;;;;;;;;;4993526;28;20026;-59
2021/05/02 11:02:38;;;;;;;14.60;7.47;;;;;;;;;;4993279;28;20041;-59
2021/05/02 11:05:04;;;;;;;13.63;7.65;;;;;;;;;;5034630;28;20059;-60
2021/05/02 11:07:33;;;;;;;15.40;8.25;;;;;;;;;;5055975;28;20025;-62
2021/05/02 11:09:59;;;;;;;13.77;7.90;;;;;;;;;;5037060;28;20029;-61
2021/05/02 11:12:26;;;;;;;15.50;7.93;;;;;;;;;;5035593;28;20021;-61
2021/05/02 11:14:55;;;;;;;14.77;8.30;;;11.70;96.10;;;;;;5035429;28;20100;-58
2021/05/02 11:17:21;;;;;;;;;;;11.50;92.60;;;;;;5035741;28;20446;-59
2021/05/02 11:19:48;;;;;;;16.13;7.68;;;11.30;95.00;;;;;;5036200;28;20575;-62
2021/05/02 11:22:16;;;;;;;16.08;8.15;;;11.30;96.50;;;;;;5054911;28;20021;-54
2021/05/02 11:24:46;;;;;;;15.68;8.15;;;11.30;97.90;;;;;;5055367;28;20024;-57
2021/05/02 11:27:41;;;;;;;14.30;8.10;;;11.40;98.80;;;;;;5056031;28;20048;-59
2021/05/02 11:30:16;;;;;;;14.73;7.78;;;11.50;98.00;;;;;;5055037;28;20048;-61
2021/05/02 11:32:43;;;;;;;16.10;7.45;;;;;;;;;;5054289;28;20035;-58
2021/05/02 11:35:10;;;;;;;16.40;8.27;;;;;;;;;;5054062;28;20116;-60
2021/05/02 11:37:44;;;;;;;16.35;8.30;;;;;;;;;;5054922;28;20049;-60
2021/05/02 11:40:25;;;;;;;15.88;8.77;;;11.40;98.80;;;;;;5054298;28;20036;-60
2021/05/02 11:43:11;;;;;;;18.58;8.40;;;15.30;90.20;;;;;;5054506;28;20373;-59
2021/05/02 11:45:58;;;;;;;14.93;8.95;;;;;;;;;;5053634;28;20052;-58
2021/05/02 11:48:29;;;;;;;14.43;8.35;;;;;;;;;;5055707;28;20370;-58
2021/05/02 11:51:05;;;;;;;14.82;8.55;;;;;;;;;;5054708;28;20025;-57
2021/05/02 11:53:35;;;;;;;14.45;8.30;;;;;;;;;;5055058;28;20025;-60
2021/05/02 11:56:01;;;;;;;14.13;8.00;;;;;;;;;;5052851;28;20028;-60
2021/05/02 11:58:27;;;;;;;14.50;8.48;;;;;;;;;;5054941;28;20047;-57
2021/05/02 12:00:55;;;;;;;15.13;8.27;;;;;;;;;;5054471;28;20057;-59
2021/05/02 12:03:39;;;;;;;14.25;8.13;;;;;;;;;;5055043;28;20443;-58
2021/05/02 12:06:09;;;;;;;14.10;8.18;;;;;;;;;;5054959;28;20028;-54
2021/05/02 12:08:36;;;;;;;14.45;8.73;;;;;;;;;;5055014;28;20033;-59
2021/05/02 12:11:06;;;;;;;14.82;8.63;;;;;;;;;;5054019;28;20031;-61
2021/05/02 12:13:40;;;;;;;14.70;8.38;;;;;;;;;;5054963;28;20028;-57
2021/05/02 12:16:09;;;;;;;14.88;8.10;;;;;;;;;;4722109;28;10000776;-56
2021/05/02 12:18:46;;;;;;;16.50;8.30;;;;;;;;;;5031808;28;20227;-56
2021/05/02 12:21:15;;;;;;;15.13;8.73;;;;;;;;;;5047992;28;20025;-54
2021/05/02 12:23:41;;;;;;;14.73;8.10;;;;;;;;;;5050871;28;20115;-61
2021/05/02 12:26:14;;;;;;;15.60;8.32;;;14.10;89.30;;;;;;5051360;28;20017;-61
2021/05/02 12:28:41;;;;;;;15.98;8.25;;;11.20;81.40;;;;;;5049719;28;20124;-59
2021/05/02 12:31:07;;;;;;;17.05;8.60;;;;;;;;;;5051023;28;20041;-62
2021/05/02 12:33:38;;;;;;;14.23;8.07;;;10.80;84.20;;;;;;5049460;28;20025;-60
2021/05/02 12:36:09;;;;;;;16.98;7.88;;;10.50;86.00;;;;;;5050897;28;20021;-56
2021/05/02 12:38:35;;;;;;;14.75;7.22;;;10.50;85.40;;;;;;5048786;28;20021;-54
2021/05/02 12:41:01;;;;;;;14.02;7.30;;;10.40;85.60;;;;;;5049732;28;20422;-58
2021/05/02 12:43:32;;;;;;;14.32;7.68;;;10.60;86.10;;;;;;5049624;28;20508;-59
2021/05/02 12:45:59;;;;;;;13.73;7.20;;;10.80;85.60;;;;;;5050612;28;20112;-59
2021/05/02 12:48:33;;;;;;;18.77;8.57;;;11.10;85.50;;;;;;5055936;22;20499;-54
2021/05/02 12:51:00;;;;;;;14.90;8.10;;;11.50;84.50;;;;;;5026151;28;20029;-54
2021/05/02 12:53:41;;;;;;;13.73;8.10;;;12.00;80.90;;;;;;5030257;28;20543;-60
2021/05/02 12:56:07;;;;;;;14.45;8.07;;;12.20;77.00;;;;;;5030543;28;20052;-57
2021/05/02 12:58:42;;;;;;;14.27;7.55;;;12.20;75.10;;;;;;5032377;28;20033;-59
2021/05/02 13:01:17;;;;;;;14.05;7.95;;;12.30;75.10;;;;;;5031703;28;20123;-57
2021/05/02 13:03:58;;;;;;;14.73;7.65;;;12.20;75.40;;;;;;5032225;28;20037;-58
2021/05/02 13:06:25;;;;;;;13.73;7.82;;;11.90;75.60;;;;;;5017126;28;20029;-56
2021/05/02 13:09:03;;;;;;;14.32;8.50;;;11.50;78.10;;;;;;5012956;28;20405;-56
2021/05/02 13:11:34;;;;;;;13.95;7.88;;;11.40;80.10;;;;;;5013458;28;20109;-58
2021/05/02 13:14:15;;;;;;;13.70;8.02;;;;;;;;;;5013569;28;20087;-56
2021/05/02 13:16:51;;;;;;;15.13;8.07;;;11.20;79.30;;;;;;5013269;28;20022;-56
2021/05/02 13:19:29;;;;;;;14.70;7.93;;;10.70;79.20;;;;;;5008292;28;20123;-59
2021/05/02 13:22:17;;;;;;;14.85;8.60;;;10.70;79.80;;;;;;5007545;28;20037;-59
2021/05/02 13:25:06;;;;;;;14.68;7.70;;;10.80;81.10;;;;;;5012811;28;20022;-56
2021/05/02 13:27:51;;;;;;;14.15;8.15;;;10.80;82.00;;;;;;5012958;28;20073;-53